• Join FlightAware (Why Join?)
  • Login
  • US Flag 
10:18AM EDT


 

Airport Tracker/Info


-or-


 

Live Flight TrackerFlight Track Log ✈ SIA22 ✈ 29-Apr-2013 ✈ WSSS / SIN - KEWR

Flight Track Log - Related Links

Times and Time Zones

All times are in EDT time to prevent confusion due to time zone crossing. See the SIA22 flight status page for this flight to view local times or setup timezone preferences in your user account.

Time Position Orientation Groundspeed Altitude Reporting Facility
EDT Latitude Longitude Course Direction KTS MPH feet Rate Location/Type
05:55PM 40.6925 -74.1687 358° North  Level Estimated
05:55PM 41.4099 -74.3076 15° North 286 329 6,700  Level FlightAware ADS-B
05:55PM 41.4294 -74.3078 360° North 291 335 6,700  Level FlightAware ADS-B
05:55PM 41.4369 -74.3108 343° North 295 339 6,700 360 Level FlightAware ADS-B
05:55PM 41.4486 -74.3195 331° Northwest 288 331 6,800 300 Climbing FlightAware ADS-B
05:55PM 41.4557 -74.3283 317° Northwest 286 329 6,800  Level FlightAware ADS-B
05:56PM 41.4662 -74.3529 300° West 277 319 6,800 120 Level FlightAware ADS-B
05:57PM 41.4500 -74.4167 300° West 283 326 7,000 -360 Climbing New York TRACON
06:02PM 41.0553 -74.3970 300° West 238 274 4,800 -420 Descending FlightAware ADS-B
06:03PM 41.0399 -74.3915 165° South 225 259 4,800  Level FlightAware ADS-B
06:03PM 41.0240 -74.3854 164° South 210 242 4,800  Level FlightAware ADS-B
06:03PM 41.0211 -74.3834 153° Southeast 208 239 4,800  Level FlightAware ADS-B
06:03PM 41.0181 -74.3807 146° Southeast 208 239 4,800  Level FlightAware ADS-B
06:03PM 41.0122 -74.3724 133° Southeast 212 244 4,800  Level FlightAware ADS-B
06:03PM 41.0094 -74.3671 125° Southeast 214 246 4,800  Level FlightAware ADS-B
06:03PM 41.0006 -74.3502 125° Southeast 212 244 4,800  Level FlightAware ADS-B
06:04PM 40.9919 -74.3333 124° Southeast 211 243 4,800  Level FlightAware ADS-B
06:04PM 40.9831 -74.3166 125° Southeast 210 242 4,800  Level FlightAware ADS-B
06:04PM 40.9746 -74.3003 125° Southeast 202 232 4,800  Level FlightAware ADS-B
06:05PM 40.9669 -74.2855 125° Southeast 192 221 4,800 -600 Level FlightAware ADS-B
06:05PM 40.9492 -74.2520 125° Southeast 188 216 4,300 -960 Descending FlightAware ADS-B
06:05PM 40.9418 -74.2380 125° Southeast 184 212 4,000 -1,020 Descending FlightAware ADS-B
06:06PM 40.9345 -74.2242 125° Southeast 178 205 3,800 -420 Descending FlightAware ADS-B
06:06PM 40.9267 -74.2094 125° Southeast 178 205 3,800  Level FlightAware ADS-B
06:06PM 40.9192 -74.1953 125° Southeast 179 206 3,800  Level FlightAware ADS-B
06:06PM 40.9120 -74.1816 125° Southeast 179 206 3,800  Level FlightAware ADS-B
06:07PM 40.9045 -74.1674 125° Southeast 179 206 3,800  Level FlightAware ADS-B
06:07PM 40.8970 -74.1533 125° Southeast 181 208 3,800  Level FlightAware ADS-B
06:07PM 40.8890 -74.1382 125° Southeast 182 209 3,800  Level FlightAware ADS-B
06:07PM 40.8806 -74.1224 125° Southeast 183 211 3,800 -720 Level FlightAware ADS-B
06:08PM 40.8714 -74.1050 125° Southeast 182 209 3,400 -1,140 Descending FlightAware ADS-B
06:08PM 40.8649 -74.0926 125° Southeast 181 208 3,200 -1,020 Descending FlightAware ADS-B
06:08PM 40.8629 -74.0893 129° Southeast 181 208 3,100 -1,740 Descending FlightAware ADS-B
06:08PM 40.8609 -74.0866 134° Southeast 180 207 3,000 -1,380 Descending FlightAware ADS-B
06:08PM 40.8570 -74.0830 145° Southeast 180 207 2,900 -1,440 Descending FlightAware ADS-B
06:08PM 40.8513 -74.0807 163° South 180 207 2,700 -1,080 Descending FlightAware ADS-B
06:09PM 40.8435 -74.0806 179° South 180 207 2,600 -960 Descending FlightAware ADS-B
06:09PM 40.8408 -74.0809 185° South 180 207 2,500 -960 Descending FlightAware ADS-B
06:09PM 40.8274 -74.0835 188° South 176 203 2,300 -480 Descending FlightAware ADS-B
06:09PM 40.8206 -74.0851 190° South 180 207 2,300  Level FlightAware ADS-B
06:09PM 40.8182 -74.0859 194° South 180 207 2,300  Level FlightAware ADS-B
06:09PM 40.8150 -74.0873 198° South 180 207 2,300 -720 Level FlightAware ADS-B
06:10PM 40.7972 -74.0984 205° Southwest 178 205 2,000 -840 Descending FlightAware ADS-B
06:10PM 40.7884 -74.1039 205° Southwest 177 204 1,800 -1,080 Descending FlightAware ADS-B
06:10PM 40.7768 -74.1112 205° Southwest 177 204 1,500 -1,020 Descending FlightAware ADS-B
06:10PM 40.7659 -74.1181 206° Southwest 167 192 1,300 -1,020 Descending FlightAware ADS-B
06:10PM 40.7556 -74.1246 206° Southwest 156 180 1,000 -900 Descending FlightAware ADS-B
06:11PM 40.7487 -74.1291 206° Southwest 146 168 900 -840 Descending FlightAware ADS-B
06:11PM 40.7419 -74.1334 206° Southwest 137 158 700 -720 Descending FlightAware ADS-B
06:11PM 40.7238 -74.1449 206° Southwest 137 158 400 -300 Descending FlightAware ADS-B
06:12PM 40.7167 -74.1500 206° Southwest 137 158 500 360 Climbing New York TRACON
06:14PM 40.6925 -74.1687 143° Southeast  Level Estimated
06:21PM 40.6925 -74.1687 143° Southeast  Level Estimated